Terminal Aerodrome Forecast
Issued by NWS Omaha/Valley, NE

Home | Current Version | Previous Version | Text Only | Print | Product List | Glossary Off
Versions: 1 2 3 4 5 6 7 8 9 10 11 12 13 14 15 16 17 18 19 20 21 22 23 24 25 26 27 28 29 30 31 32

262
FTUS43 KOAX 290520
TAFOFK
TAF
KOFK 290520Z 2906/3006 01005KT P6SM SCT015 OVC025
      TEMPO 2909/2913 4SM BR BKN008 OVC015
     FM291500 03009KT P6SM OVC020
     FM291900 06010KT 6SM -RA OVC015
      TEMPO 2922/3001 4SM -RA=

USA.gov is the U.S. government's official web portal to all federal, state and local government web resources and services.